Time;durP1;ratioP1;P1;durP2;ratioP2;P2;SDS_P1;SDS_P2;PMS_P1;PMS_P2;Temp;Humidity;BMP_temperature;BMP_pressure;BME280_temperature;BME280_humidity;BME280_pressure;Samples;Min_cycle;Max_cycle;Signal;HPM_P1;HPM_P2
2022/11/20 00:07:33;;;;;;;46.00;19.80;;;;;;;-0.32;78.76;100045.25;640192;1306;138939;-75
2022/11/20 00:22:36;;;;;;;58.20;25.70;;;;;;;-0.34;78.11;100046.38;640737;1308;139009;-77
2022/11/20 00:37:40;;;;;;;49.20;21.80;;;;;;;-0.28;77.90;100041.79;640381;1311;138844;-76
2022/11/20 00:52:43;;;;;;;43.30;19.10;;;;;;;-0.31;78.18;100040.38;639905;1312;139152;-75
2022/11/20 01:07:46;;;;;;;47.40;20.80;;;;;;;-0.22;78.24;100043.22;640278;1312;138899;-80
2022/11/20 01:22:49;;;;;;;55.70;24.50;;;;;;;-0.20;78.76;100039.70;640692;1312;138738;-76
2022/11/20 01:37:53;;;;;;;48.00;22.00;;;;;;;-0.18;79.89;100036.68;639370;1312;139501;-79
2022/11/20 01:53:09;;;;;;;43.90;19.70;;;;;;;-0.14;80.67;100033.90;639244;1311;139325;-76
2022/11/20 02:08:12;;;;;;;37.20;16.50;;;;;;;-0.06;81.31;100035.10;639979;1312;138859;-78
2022/11/20 02:23:39;;;;;;;40.90;18.20;;;;;;;-0.01;82.03;100027.80;640035;1311;139171;-79
2022/11/20 02:38:43;;;;;;;33.80;14.60;;;;;;;0.01;82.63;100024.08;639884;1312;138796;-80
2022/11/20 02:53:47;;;;;;;40.10;17.80;;;;;;;0.04;83.43;100022.55;639242;1313;138907;-75
2022/11/20 03:08:50;;;;;;;50.20;21.60;;;;;;;-0.06;84.32;100009.31;640352;1308;138791;-76
2022/11/20 03:23:54;;;;;;;55.40;23.20;;;;;;;-0.05;84.43;100005.45;640068;1312;138970;-75
2022/11/20 03:38:58;;;;;;;49.80;22.20;;;;;;;-0.07;85.10;100000.60;639760;1312;138825;-81
2022/11/20 03:54:05;;;;;;;52.50;23.40;;;;;;;-0.08;85.63;99997.04;640069;1312;139271;-75
2022/11/20 04:09:10;;;;;;;56.10;25.70;;;;;;;-0.18;85.96;99996.11;639961;1312;174602;-77
2022/11/20 04:24:13;;;;;;;57.30;25.80;;;;;;;-0.27;86.58;99994.11;639837;1312;138642;-76
2022/11/20 04:39:17;;;;;;;60.10;26.60;;;;;;;-0.33;86.75;99982.05;639547;1312;139312;-77
2022/11/20 04:54:20;;;;;;;57.60;25.60;;;;;;;-0.34;86.90;99983.81;639828;1312;138648;-79
2022/11/20 05:09:24;;;;;;;51.60;23.60;;;;;;;-0.38;87.03;99980.57;640046;1312;140390;-78
2022/11/20 05:24:27;;;;;;;61.00;25.30;;;;;;;-0.41;87.06;99975.90;639567;1312;138871;-81
2022/11/20 05:39:30;;;;;;;62.80;25.50;;;;;;;-0.46;87.64;99970.77;639632;1311;138544;-77
2022/11/20 05:54:34;;;;;;;57.70;23.50;;;;;;;-0.47;88.21;99959.34;640004;1312;138644;-76
2022/11/20 06:09:37;;;;;;;63.00;27.40;;;;;;;-0.47;89.09;99946.98;640290;1312;139044;-78
2022/11/20 06:24:41;;;;;;;102.70;42.40;;;;;;;-0.46;89.38;99943.12;640260;1312;138931;-75
2022/11/20 06:39:44;;;;;;;64.80;28.80;;;;;;;-0.49;90.49;99936.94;640121;1312;138951;-79
2022/11/20 06:54:47;;;;;;;78.80;38.20;;;;;;;-0.41;90.59;99936.89;639749;1312;139002;-79
2022/11/20 07:09:51;;;;;;;109.50;49.10;;;;;;;-0.40;91.19;99941.63;639263;1306;138654;-76
2022/11/20 07:24:55;;;;;;;101.30;45.90;;;;;;;-0.30;91.40;99925.87;639966;1298;139197;-78
2022/11/20 07:39:58;;;;;;;191.00;64.30;;;;;;;-0.15;90.88;99919.30;639624;1304;140299;-78
2022/11/20 07:55:03;;;;;;;87.90;34.80;;;;;;;0.01;90.89;99925.58;639804;1312;139285;-77
2022/11/20 08:10:09;;;;;;;137.70;45.60;;;;;;;0.03;91.28;99927.53;640288;1309;138595;-78
2022/11/20 08:25:12;;;;;;;129.30;47.70;;;;;;;0.20;91.25;99921.69;640074;1310;138661;-77
2022/11/20 08:40:16;;;;;;;84.70;36.70;;;;;;;0.40;91.01;99912.73;640388;1312;139127;-75
2022/11/20 08:55:22;;;;;;;71.80;32.90;;;;;;;0.63;90.80;99904.51;640046;1312;138437;-75
2022/11/20 09:10:27;;;;;;;114.70;45.60;;;;;;;0.80;90.05;99887.06;639760;1312;138647;-77
2022/11/20 09:25:31;;;;;;;80.80;37.80;;;;;;;1.11;89.14;99881.96;643186;1312;138845;-77
2022/11/20 09:40:38;;;;;;;57.50;25.30;;;;;;;1.72;88.38;99874.23;640774;1312;138921;-76
2022/11/20 09:55:43;;;;;;;55.90;25.10;;;;;;;1.75;86.29;99864.74;640554;1309;138453;-79
2022/11/20 10:10:52;;;;;;;79.80;32.70;;;;;;;1.93;85.54;99853.53;641128;1308;138375;-79
2022/11/20 10:26:03;;;;;;;81.30;34.80;;;;;;;1.83;84.53;99849.82;640421;1313;138291;-80
2022/11/20 10:41:25;;;;;;;61.30;29.00;;;;;;;1.60;84.28;99849.23;640271;1307;138509;-76
2022/11/20 10:56:31;;;;;;;136.70;69.50;;;;;;;1.53;85.28;99845.85;639971;1295;138259;-81
2022/11/20 11:11:38;;;;;;;71.50;29.10;;;;;;;1.44;85.52;99844.81;639846;1303;138666;-76
2022/11/20 11:26:58;;;;;;;66.70;28.30;;;;;;;1.44;86.33;99832.06;640351;1303;138414;-76
2022/11/20 11:42:03;;;;;;;78.60;34.80;;;;;;;1.53;86.89;99821.56;639072;1313;138244;-77
2022/11/20 11:57:26;;;;;;;75.60;34.90;;;;;;;1.43;87.03;99810.93;639683;1312;138259;-79
2022/11/20 12:12:36;;;;;;;75.90;33.30;;;;;;;1.38;88.30;99804.83;639554;1303;138260;-76
2022/11/20 12:28:15;;;;;;;71.10;29.60;;;;;;;1.35;88.53;99790.56;640472;1310;138867;-79
2022/11/20 12:59:11;;;;;;;65.40;29.70;;;;;;;1.53;89.73;99758.12;644810;1309;138430;-78
2022/11/20 13:14:41;;;;;;;103.00;42.00;;;;;;;1.41;89.47;99752.95;640260;1312;138224;-79
2022/11/20 13:29:46;;;;;;;106.30;42.50;;;;;;;1.35;90.48;99727.61;640504;1308;138440;-76
2022/11/20 13:44:55;;;;;;;117.50;48.00;;;;;;;1.42;90.93;99721.17;640254;1303;138794;-83
2022/11/20 14:00:20;;;;;;;139.20;52.90;;;;;;;1.33;91.57;99714.63;641615;1309;138339;-76
2022/11/20 14:15:34;;;;;;;133.70;51.10;;;;;;;1.29;92.39;99697.13;643181;1297;138642;-77
2022/11/20 14:30:47;;;;;;;89.30;41.50;;;;;;;1.22;92.80;99693.20;640452;1297;139046;-79
2022/11/20 14:45:59;;;;;;;104.40;40.10;;;;;;;1.27;93.06;99681.90;642012;1311;138343;-80
2022/11/20 15:01:11;;;;;;;79.10;33.20;;;;;;;1.25;94.15;99677.20;640506;1312;139132;-79
2022/11/20 15:16:21;;;;;;;107.60;40.40;;;;;;;1.30;94.42;99664.85;640997;1304;138279;-75
2022/11/20 15:31:25;;;;;;;148.20;59.50;;;;;;;1.35;94.01;99658.38;640380;1311;138669;-77
2022/11/20 15:46:37;;;;;;;113.70;51.90;;;;;;;1.37;94.61;99649.10;640311;1312;139035;-77
2022/11/20 16:01:41;;;;;;;63.10;26.70;;;;;;;1.30;95.90;99635.07;640406;1306;138297;-76
2022/11/20 16:16:45;;;;;;;61.70;26.70;;;;;;;1.25;97.11;99631.20;640464;1308;168122;-76
2022/11/20 16:31:49;;;;;;;54.20;24.40;;;;;;;1.21;97.91;99626.83;640318;1312;140108;-79
2022/11/20 16:46:54;;;;;;;65.10;28.00;;;;;;;1.16;99.52;99625.72;640537;1309;139711;-77
2022/11/20 17:01:58;;;;;;;70.80;32.90;;;;;;;1.15;99.79;99619.04;640707;1298;138291;-79
2022/11/20 17:17:02;;;;;;;65.70;30.60;;;;;;;1.07;100.00;99620.01;641130;1304;138463;-77
2022/11/20 17:32:05;;;;;;;75.10;33.80;;;;;;;1.02;100.00;99620.83;640196;1309;138654;-76
2022/11/20 17:47:09;;;;;;;72.20;29.20;;;;;;;0.99;100.00;99620.19;640358;1303;138923;-77
2022/11/20 18:02:13;;;;;;;64.40;26.40;;;;;;;0.97;100.00;99610.47;640926;1312;138823;-77
2022/11/20 18:17:17;;;;;;;100.70;39.80;;;;;;;0.91;100.00;99606.33;640539;1306;138979;-76
2022/11/20 18:32:21;;;;;;;65.80;31.30;;;;;;;0.89;100.00;99602.66;641188;1311;138773;-78
2022/11/20 18:47:31;;;;;;;87.60;36.20;;;;;;;0.85;100.00;99592.27;640763;1311;139103;-77
2022/11/20 19:02:35;;;;;;;67.70;27.50;;;;;;;0.81;100.00;99595.02;642015;1297;139157;-77
2022/11/20 19:17:45;;;;;;;75.80;31.70;;;;;;;0.69;100.00;99587.98;642262;1311;139015;-78
2022/11/20 19:32:49;;;;;;;62.40;29.90;;;;;;;0.67;100.00;99575.70;641113;1311;139045;-76
2022/11/20 19:47:54;;;;;;;96.80;40.30;;;;;;;0.66;100.00;99575.95;642387;1312;138917;-77
2022/11/20 20:03:13;;;;;;;71.50;28.20;;;;;;;0.78;100.00;99575.58;645192;1297;139089;-77
2022/11/20 20:18:16;;;;;;;57.50;26.30;;;;;;;0.83;100.00;99565.84;648446;1304;139229;-77
2022/11/20 20:33:20;;;;;;;80.40;33.40;;;;;;;0.89;100.00;99569.41;641736;1311;139523;-76
2022/11/20 20:48:24;;;;;;;65.30;28.30;;;;;;;0.89;100.00;99578.27;641709;1311;139180;-77
2022/11/20 21:03:28;;;;;;;67.60;26.80;;;;;;;0.84;100.00;99582.29;642036;1303;139267;-80
2022/11/20 21:18:35;;;;;;;84.50;32.30;;;;;;;0.80;100.00;99571.66;641708;1295;139270;-77
2022/11/20 21:33:41;;;;;;;58.50;24.20;;;;;;;0.78;100.00;99562.67;642294;1304;139062;-76
2022/11/20 21:48:46;;;;;;;71.50;31.40;;;;;;;0.75;100.00;99548.38;640596;1297;138947;-76
2022/11/20 22:03:52;;;;;;;109.50;41.00;;;;;;;0.65;100.00;99543.83;641565;1301;139134;-77
2022/11/20 22:18:57;;;;;;;94.40;38.20;;;;;;;0.47;99.20;99537.11;645888;1295;139441;-77
2022/11/20 22:34:01;;;;;;;69.70;29.10;;;;;;;0.15;97.51;99526.20;641172;1297;138736;-77
2022/11/20 22:49:09;;;;;;;113.50;44.20;;;;;;;-0.19;96.00;99528.45;640914;1312;139045;-77
2022/11/20 23:04:14;;;;;;;106.80;41.80;;;;;;;-0.39;95.29;99517.83;640887;1299;139313;-78
2022/11/20 23:19:18;;;;;;;98.70;38.10;;;;;;;-0.49;94.99;99518.05;640921;1311;139079;-77
2022/11/20 23:34:22;;;;;;;89.00;36.20;;;;;;;-0.58;94.51;99523.70;640903;1312;139259;-78
2022/11/20 23:49:25;;;;;;;120.90;42.60;;;;;;;-0.49;94.20;99519.58;640041;1312;139131;-78
